createdAt,value
2022-07-29T00:02:04.096Z,1.98
2022-07-29T00:05:06.704Z,2.30
2022-07-29T00:08:12.525Z,1.80
2022-07-29T00:11:14.974Z,2.10
2022-07-29T00:14:17.489Z,1.95
2022-07-29T00:17:20.068Z,2.60
2022-07-29T00:20:22.325Z,2.17
2022-07-29T00:23:24.560Z,2.30
2022-07-29T00:26:28.775Z,2.30
2022-07-29T00:29:33.940Z,2.10
2022-07-29T00:32:36.611Z,2.00
2022-07-29T00:35:45.126Z,2.10
2022-07-29T00:38:49.009Z,2.10
2022-07-29T00:41:51.444Z,2.20
2022-07-29T00:44:53.685Z,2.45
2022-07-29T00:47:55.905Z,2.20
2022-07-29T00:50:59.608Z,2.37
2022-07-29T00:54:01.901Z,2.40
2022-07-29T00:57:04.241Z,2.35
2022-07-29T01:00:13.583Z,2.05
2022-07-29T01:03:15.808Z,2.30
2022-07-29T01:06:19.494Z,2.33
2022-07-29T01:09:34.467Z,2.28
2022-07-29T01:12:46.430Z,2.05
2022-07-29T01:15:56.922Z,2.20
2022-07-29T01:19:09.169Z,2.30
2022-07-29T01:22:27.541Z,2.45
2022-07-29T01:25:35.689Z,2.65
2022-07-29T01:29:07.512Z,2.30
2022-07-29T01:32:27.498Z,2.28
2022-07-29T01:35:36.664Z,2.45
2022-07-29T01:38:40.699Z,2.10
2022-07-29T01:41:50.618Z,2.42
2022-07-29T01:44:58.494Z,2.12
2022-07-29T01:48:06.300Z,2.25
2022-07-29T01:51:22.046Z,2.78
2022-07-29T01:54:38.575Z,2.40
2022-07-29T01:57:41.875Z,2.15
2022-07-29T02:00:46.220Z,2.22
2022-07-29T02:03:50.129Z,2.85
2022-07-29T02:06:54.163Z,2.20
2022-07-29T02:09:57.146Z,2.05
2022-07-29T02:12:59.915Z,2.05
2022-07-29T02:16:03.902Z,2.05
2022-07-29T02:19:07.801Z,2.37
2022-07-29T02:22:10.514Z,2.40
2022-07-29T02:25:14.037Z,2.30
2022-07-29T02:28:17.514Z,2.58
2022-07-29T02:31:23.391Z,2.50
2022-07-29T02:34:26.388Z,2.60
2022-07-29T02:37:30.173Z,2.70
2022-07-29T02:40:34.828Z,2.42
2022-07-29T02:43:37.276Z,2.15
2022-07-29T02:46:53.478Z,2.50
2022-07-29T02:49:59.184Z,2.50
2022-07-29T02:53:17.399Z,2.25
2022-07-29T02:56:25.359Z,2.30
2022-07-29T02:59:29.495Z,2.20
2022-07-29T03:02:35.755Z,2.55
2022-07-29T03:05:38.300Z,2.30
2022-07-29T03:08:41.491Z,2.60
2022-07-29T03:11:49.666Z,2.40
2022-07-29T03:14:52.673Z,3.90
2022-07-29T03:17:56.598Z,2.58
2022-07-29T03:20:58.988Z,3.08
2022-07-29T03:24:01.193Z,2.78
2022-07-29T03:27:04.893Z,2.62
2022-07-29T03:30:08.908Z,2.78
2022-07-29T03:33:13.406Z,2.25
2022-07-29T03:36:16.053Z,2.30
2022-07-29T03:39:23.670Z,3.10
2022-07-29T03:42:33.835Z,2.90
2022-07-29T03:45:36.956Z,3.40
2022-07-29T03:48:43.666Z,2.75
2022-07-29T03:51:45.938Z,3.00
2022-07-29T03:54:48.613Z,2.53
2022-07-29T03:57:51.142Z,3.12
2022-07-29T04:00:54.886Z,2.80
2022-07-29T04:03:57.786Z,2.53
2022-07-29T04:07:00.083Z,2.80
2022-07-29T04:10:02.324Z,3.12
2022-07-29T04:13:04.654Z,3.10
2022-07-29T04:16:06.931Z,2.30
2022-07-29T04:19:09.266Z,2.60
2022-07-29T04:22:11.582Z,2.78
2022-07-29T04:25:13.803Z,2.83
2022-07-29T04:28:16.040Z,2.70
2022-07-29T04:31:23.815Z,2.50
2022-07-29T04:34:28.284Z,3.37
2022-07-29T04:37:30.650Z,2.22
2022-07-29T04:40:34.137Z,2.72
2022-07-29T04:43:37.104Z,3.72
2022-07-29T04:46:39.515Z,2.30
2022-07-29T04:49:41.829Z,2.10
2022-07-29T04:52:44.117Z,2.37
2022-07-29T04:55:46.476Z,2.22
2022-07-29T04:58:48.680Z,2.30
2022-07-29T05:01:51.000Z,2.70
2022-07-29T05:04:53.263Z,2.35
2022-07-29T05:07:56.231Z,2.50
2022-07-29T05:10:58.499Z,2.50
2022-07-29T05:14:15.051Z,2.47
2022-07-29T05:17:18.034Z,2.05
2022-07-29T05:20:20.808Z,2.20
2022-07-29T05:23:23.012Z,3.00
2022-07-29T05:26:25.303Z,2.50
2022-07-29T05:29:42.958Z,2.20
2022-07-29T05:32:48.601Z,2.15
2022-07-29T05:35:50.784Z,2.35
2022-07-29T05:38:56.098Z,2.60
2022-07-29T05:41:58.338Z,2.25
2022-07-29T05:45:00.843Z,2.42
2022-07-29T05:48:03.091Z,2.28
2022-07-29T05:51:06.009Z,2.40
2022-07-29T05:54:08.254Z,2.70
2022-07-29T05:57:19.813Z,2.58
2022-07-29T06:00:22.090Z,2.50
2022-07-29T06:03:24.279Z,2.60
2022-07-29T06:06:26.545Z,2.58
2022-07-29T06:09:29.328Z,2.87
2022-07-29T06:12:31.577Z,2.55
2022-07-29T06:15:34.485Z,2.58
2022-07-29T06:18:36.761Z,2.30
2022-07-29T06:21:48.328Z,2.60
2022-07-29T06:24:50.881Z,2.20
2022-07-29T06:27:53.319Z,2.70
2022-07-29T06:30:55.591Z,2.20
2022-07-29T06:33:57.865Z,2.50
2022-07-29T06:37:00.626Z,2.20
2022-07-29T06:40:21.366Z,3.12
2022-07-29T06:46:28.790Z,2.55
2022-07-29T06:49:31.137Z,2.75
2022-07-29T06:52:33.518Z,2.30
2022-07-29T06:55:35.781Z,1.98
2022-07-29T06:58:37.969Z,2.00
2022-07-29T07:01:42.988Z,3.17
2022-07-29T07:04:45.299Z,2.40
2022-07-29T07:07:47.604Z,2.37
2022-07-29T07:10:50.217Z,2.37
2022-07-29T07:13:52.735Z,2.10
2022-07-29T07:16:55.028Z,1.90
2022-07-29T07:19:57.296Z,3.10
2022-07-29T07:22:59.523Z,2.03
2022-07-29T07:26:01.859Z,2.00
2022-07-29T07:29:04.056Z,2.40
2022-07-29T07:32:06.439Z,2.40
2022-07-29T07:35:10.517Z,1.95
2022-07-29T07:38:12.806Z,2.30
2022-07-29T07:41:15.080Z,2.20
2022-07-29T07:44:17.814Z,2.08
2022-07-29T07:47:24.561Z,2.37
2022-07-29T07:50:30.292Z,2.00
2022-07-29T07:53:32.700Z,2.20
2022-07-29T07:56:35.500Z,1.83
2022-07-29T07:59:37.963Z,2.20
2022-07-29T08:02:40.865Z,2.17
2022-07-29T08:05:43.928Z,2.75
2022-07-29T08:08:46.223Z,2.22
2022-07-29T08:11:52.308Z,2.20
2022-07-29T08:14:55.139Z,2.35
2022-07-29T08:17:57.370Z,2.33
2022-07-29T08:20:59.781Z,2.35
2022-07-29T08:24:20.699Z,2.10
2022-07-29T08:27:42.584Z,2.20
2022-07-29T08:30:45.601Z,2.30
2022-07-29T08:33:47.927Z,2.28
2022-07-29T08:36:50.248Z,2.58
2022-07-29T08:39:53.709Z,2.00
2022-07-29T08:42:55.986Z,2.17
2022-07-29T08:45:58.376Z,2.00
2022-07-29T08:49:01.009Z,1.90
2022-07-29T08:52:03.755Z,2.05
2022-07-29T08:55:10.654Z,2.00
2022-07-29T08:58:15.764Z,2.00
2022-07-29T09:01:23.109Z,2.00
2022-07-29T09:04:38.038Z,1.60
2022-07-29T09:07:40.480Z,1.62
2022-07-29T09:10:42.964Z,1.50
2022-07-29T09:13:45.321Z,1.85
2022-07-29T09:16:57.657Z,1.83
2022-07-29T09:20:10.091Z,2.05
2022-07-29T09:23:12.353Z,1.70
2022-07-29T09:26:29.414Z,1.70
2022-07-29T09:29:36.148Z,1.70
2022-07-29T09:33:01.728Z,1.60
2022-07-29T09:36:08.681Z,1.50
2022-07-29T09:39:11.372Z,1.62
2022-07-29T09:42:14.453Z,1.50
2022-07-29T09:45:33.811Z,1.60
2022-07-29T09:48:36.127Z,1.80
2022-07-29T09:51:38.912Z,1.65
2022-07-29T09:54:41.373Z,1.87
2022-07-29T09:57:44.675Z,1.60
2022-07-29T10:00:48.336Z,1.62
2022-07-29T10:03:54.000Z,1.10
2022-07-29T10:07:04.444Z,1.65
2022-07-29T10:10:07.423Z,1.70
2022-07-29T10:13:15.769Z,1.67
2022-07-29T10:16:19.033Z,1.55
2022-07-29T10:19:21.421Z,1.70
2022-07-29T10:22:51.401Z,1.50
2022-07-29T10:25:47.014Z,1.77
2022-07-29T10:28:49.264Z,1.70
2022-07-29T10:31:54.552Z,1.80
2022-07-29T10:35:09.757Z,1.25
2022-07-29T10:38:34.311Z,1.70
2022-07-29T10:42:20.019Z,1.50
2022-07-29T10:45:22.685Z,1.60
2022-07-29T10:48:25.016Z,1.67
2022-07-29T10:51:59.099Z,1.65
2022-07-29T10:55:02.976Z,1.40
2022-07-29T10:58:22.219Z,1.75
2022-07-29T11:01:37.136Z,1.58
2022-07-29T11:04:45.933Z,1.50
2022-07-29T11:08:19.619Z,1.73
2022-07-29T11:11:29.827Z,1.33
2022-07-29T11:15:01.500Z,1.70
2022-07-29T11:18:04.089Z,1.80
2022-07-29T11:21:54.889Z,1.48
2022-07-29T11:25:17.778Z,1.90
2022-07-29T11:28:25.124Z,1.48
2022-07-29T11:31:38.831Z,1.45
2022-07-29T11:34:42.457Z,1.50
2022-07-29T11:37:52.751Z,1.85
2022-07-29T11:41:18.870Z,1.52
2022-07-29T11:45:04.353Z,1.65
2022-07-29T11:48:31.800Z,1.60
2022-07-29T11:51:34.784Z,1.60
2022-07-29T11:54:57.144Z,1.50
2022-07-29T11:58:04.007Z,2.08
2022-07-29T12:01:07.354Z,1.55
2022-07-29T12:04:09.624Z,1.67
2022-07-29T12:07:15.643Z,1.58
2022-07-29T12:10:19.736Z,1.60
2022-07-29T12:13:39.714Z,1.50
2022-07-29T12:16:41.994Z,2.53
2022-07-29T12:19:44.633Z,2.08
2022-07-29T12:22:49.472Z,1.50
2022-07-29T12:25:51.758Z,1.42
2022-07-29T12:28:56.232Z,1.50
2022-07-29T12:31:59.777Z,1.85
2022-07-29T12:35:08.731Z,1.37
2022-07-29T12:38:12.786Z,1.70
2022-07-29T12:41:15.143Z,1.70
2022-07-29T12:44:17.384Z,1.20
2022-07-29T12:47:20.481Z,1.55
2022-07-29T12:50:26.289Z,1.33
2022-07-29T12:53:29.468Z,1.30
2022-07-29T12:56:47.060Z,1.52
2022-07-29T13:00:12.602Z,1.45
2022-07-29T13:03:14.859Z,1.73
2022-07-29T13:06:49.624Z,1.50
2022-07-29T13:09:53.556Z,1.40
2022-07-29T13:13:07.341Z,1.95
2022-07-29T13:16:09.685Z,1.62
2022-07-29T13:19:13.083Z,1.62
2022-07-29T13:22:17.856Z,1.30
2022-07-29T13:25:30.839Z,1.30
2022-07-29T13:28:33.081Z,1.40
2022-07-29T13:31:35.333Z,0.95
2022-07-29T13:34:37.554Z,1.50
2022-07-29T13:37:39.920Z,1.30
2022-07-29T13:40:42.635Z,1.30
2022-07-29T13:43:44.956Z,1.25
2022-07-29T13:46:47.194Z,1.10
2022-07-29T13:49:49.553Z,1.40
2022-07-29T13:52:52.282Z,1.70
2022-07-29T13:55:54.967Z,1.30
2022-07-29T13:58:58.252Z,1.20
2022-07-29T14:02:01.035Z,1.50
2022-07-29T14:05:07.982Z,1.50
2022-07-29T14:08:10.768Z,1.40
2022-07-29T14:11:13.014Z,1.62
2022-07-29T14:14:15.291Z,1.73
2022-07-29T14:17:17.995Z,1.58
2022-07-29T14:20:20.476Z,1.40
2022-07-29T14:23:22.677Z,1.45
2022-07-29T14:26:25.295Z,1.40
2022-07-29T14:29:35.259Z,1.52
2022-07-29T14:32:40.610Z,1.40
2022-07-29T14:35:42.877Z,1.55
2022-07-29T14:38:45.121Z,1.33
2022-07-29T14:41:47.315Z,1.65
2022-07-29T14:44:50.301Z,1.48
2022-07-29T14:47:56.382Z,1.85
2022-07-29T14:51:04.569Z,1.67
2022-07-29T14:54:07.306Z,1.20
2022-07-29T14:57:09.738Z,1.60
2022-07-29T15:00:12.502Z,1.50
2022-07-29T15:03:23.947Z,1.40
2022-07-29T15:06:27.403Z,1.33
2022-07-29T15:09:29.726Z,1.50
2022-07-29T15:12:32.778Z,1.80
2022-07-29T15:15:35.032Z,1.67
2022-07-29T15:18:39.248Z,1.40
2022-07-29T15:21:48.656Z,1.98
2022-07-29T15:24:51.593Z,1.50
2022-07-29T15:27:55.657Z,1.90
2022-07-29T15:31:01.417Z,1.50
2022-07-29T15:34:05.912Z,1.40
2022-07-29T15:37:08.582Z,1.70
2022-07-29T15:40:11.839Z,1.70
2022-07-29T15:43:14.073Z,1.60
2022-07-29T15:46:36.293Z,1.75
2022-07-29T15:49:48.560Z,1.83
2022-07-29T15:52:51.962Z,1.60
2022-07-29T15:55:54.275Z,1.80
2022-07-29T15:58:56.575Z,2.12
2022-07-29T16:01:59.469Z,2.20
2022-07-29T16:05:01.705Z,2.15
2022-07-29T16:08:03.987Z,2.50
2022-07-29T16:11:06.254Z,2.40
2022-07-29T16:14:09.208Z,3.00
2022-07-29T16:17:14.775Z,3.37
2022-07-29T16:20:17.575Z,2.97
2022-07-29T16:23:19.836Z,3.22
2022-07-29T16:26:22.058Z,3.17
2022-07-29T16:29:24.335Z,3.00
2022-07-29T16:32:26.603Z,3.55
2022-07-29T16:35:39.051Z,3.20
2022-07-29T16:38:47.369Z,3.00
2022-07-29T16:41:49.926Z,2.97
2022-07-29T16:44:52.193Z,3.90
2022-07-29T16:48:00.186Z,2.92
2022-07-29T16:51:03.603Z,3.25
2022-07-29T16:54:05.997Z,3.35
2022-07-29T16:57:08.281Z,2.80
2022-07-29T17:00:11.108Z,2.80
2022-07-29T17:03:13.633Z,3.10
2022-07-29T17:06:15.880Z,3.17
2022-07-29T17:09:18.196Z,2.85
2022-07-29T17:12:20.417Z,2.87
2022-07-29T17:15:22.768Z,2.95
2022-07-29T17:18:24.973Z,2.33
2022-07-29T17:21:27.558Z,2.75
2022-07-29T17:24:29.800Z,2.67
2022-07-29T17:27:32.449Z,2.20
2022-07-29T17:30:34.706Z,2.53
2022-07-29T17:33:37.086Z,2.45
2022-07-29T17:36:39.444Z,2.92
2022-07-29T17:39:42.849Z,2.33
2022-07-29T17:42:45.110Z,2.42
2022-07-29T17:45:49.846Z,2.60
2022-07-29T17:48:56.937Z,3.05
2022-07-29T17:52:01.123Z,3.15
2022-07-29T17:55:03.776Z,3.42
2022-07-29T17:58:08.859Z,2.60
2022-07-29T18:01:11.196Z,3.05
2022-07-29T18:04:15.312Z,3.60
2022-07-29T18:07:17.743Z,2.92
2022-07-29T18:10:20.001Z,3.65
2022-07-29T18:13:22.239Z,4.00
2022-07-29T18:16:24.889Z,3.05
2022-07-29T18:19:27.252Z,2.75
2022-07-29T18:22:29.454Z,2.75
2022-07-29T18:25:31.701Z,2.62
2022-07-29T18:28:34.184Z,2.78
2022-07-29T18:31:36.548Z,2.17
2022-07-29T18:34:38.798Z,2.72
2022-07-29T18:38:01.383Z,2.62
2022-07-29T18:41:03.348Z,2.37
2022-07-29T18:44:05.566Z,2.22
2022-07-29T18:47:07.797Z,2.75
2022-07-29T18:50:14.705Z,2.22
2022-07-29T18:53:18.054Z,2.45
2022-07-29T18:56:20.989Z,2.00
2022-07-29T18:59:23.298Z,2.08
2022-07-29T19:02:25.947Z,2.00
2022-07-29T19:05:28.257Z,1.98
2022-07-29T19:08:30.515Z,1.83
2022-07-29T19:11:32.773Z,1.80
2022-07-29T19:14:35.141Z,1.98
2022-07-29T19:17:38.684Z,2.55
2022-07-29T19:20:42.023Z,1.77
2022-07-29T19:24:06.024Z,2.05
2022-07-29T19:27:07.781Z,1.75
2022-07-29T19:30:10.499Z,2.10
2022-07-29T19:33:14.598Z,2.15
2022-07-29T19:36:17.464Z,1.90
2022-07-29T19:39:19.695Z,1.87
2022-07-29T19:42:37.383Z,2.37
2022-07-29T19:45:39.741Z,1.87
2022-07-29T19:48:41.992Z,2.60
2022-07-29T19:51:44.269Z,2.50
2022-07-29T19:54:46.544Z,1.95
2022-07-29T19:57:49.140Z,2.08
2022-07-29T20:00:51.441Z,2.10
2022-07-29T20:03:54.026Z,2.40
2022-07-29T20:07:01.329Z,2.55
2022-07-29T20:10:04.921Z,2.65
2022-07-29T20:13:07.161Z,2.50
2022-07-29T20:16:09.503Z,2.20
2022-07-29T20:19:11.985Z,2.85
2022-07-29T20:22:14.599Z,2.33
2022-07-29T20:25:23.959Z,2.58
2022-07-29T20:28:26.225Z,2.70
2022-07-29T20:31:30.633Z,2.45
2022-07-29T20:34:33.150Z,2.83
2022-07-29T20:37:52.273Z,2.62
2022-07-29T20:40:58.905Z,2.62
2022-07-29T20:44:02.730Z,2.67
2022-07-29T20:47:05.039Z,2.50
2022-07-29T20:50:07.691Z,2.62
2022-07-29T20:53:09.880Z,3.10
2022-07-29T20:56:12.598Z,2.60
2022-07-29T20:59:14.864Z,2.75
2022-07-29T21:02:17.337Z,2.42
2022-07-29T21:05:19.866Z,2.30
2022-07-29T21:08:22.276Z,2.58
2022-07-29T21:11:43.219Z,3.00
2022-07-29T21:14:48.016Z,2.78
2022-07-29T21:17:52.520Z,2.75
2022-07-29T21:20:55.303Z,2.53
2022-07-29T21:23:57.526Z,2.65
2022-07-29T21:27:21.224Z,2.50
2022-07-29T21:30:23.899Z,2.53
2022-07-29T21:33:27.779Z,2.60
2022-07-29T21:39:52.161Z,2.70
2022-07-29T21:42:54.352Z,3.00
2022-07-29T21:45:57.682Z,2.30
2022-07-29T21:48:59.982Z,2.87
2022-07-29T21:52:02.306Z,2.70
2022-07-29T21:55:04.884Z,2.80
2022-07-29T21:58:07.968Z,2.60
2022-07-29T22:01:10.187Z,3.05
2022-07-29T22:04:12.383Z,2.85
2022-07-29T22:07:14.613Z,2.80
2022-07-29T22:10:17.118Z,2.47
2022-07-29T22:13:19.315Z,2.83
2022-07-29T22:16:21.587Z,3.05
2022-07-29T22:19:27.691Z,3.20
2022-07-29T22:22:33.162Z,3.28
2022-07-29T22:25:35.576Z,3.28
2022-07-29T22:28:37.788Z,2.53
2022-07-29T22:31:39.968Z,2.90
2022-07-29T22:34:42.119Z,3.10
2022-07-29T22:37:44.405Z,2.75
2022-07-29T22:40:48.644Z,2.62
2022-07-29T22:43:52.713Z,3.20
2022-07-29T22:46:55.937Z,2.95
2022-07-29T22:49:58.138Z,2.58
2022-07-29T22:53:00.287Z,2.50
2022-07-29T22:56:02.641Z,3.22
2022-07-29T22:59:04.910Z,2.72
2022-07-29T23:02:07.093Z,2.60
2022-07-29T23:05:10.458Z,2.78
2022-07-29T23:08:12.724Z,2.60
2022-07-29T23:11:14.884Z,2.90
2022-07-29T23:14:17.065Z,2.97
2022-07-29T23:17:19.304Z,3.33
2022-07-29T23:20:21.546Z,2.80
2022-07-29T23:23:23.801Z,2.67
2022-07-29T23:26:25.949Z,2.70
2022-07-29T23:29:28.166Z,2.80
2022-07-29T23:32:30.410Z,2.58
2022-07-29T23:35:32.923Z,2.72
2022-07-29T23:38:35.224Z,3.05
2022-07-29T23:41:38.053Z,2.58
2022-07-29T23:44:40.230Z,2.50
2022-07-29T23:47:43.028Z,2.70
2022-07-29T23:50:45.185Z,2.50
2022-07-29T23:53:53.482Z,3.10
2022-07-29T23:56:57.938Z,2.60
